• Join FlightAware (Why Join?)
  • Login
  • US Flag 
11:24AM EDT


 

Airport Tracker/Info


-or-


 

Live Flight TrackerFlight Track Log ✈ SWA378 ✈ 09-May-2013 ✈ KSJC - KLAX

Flight Track Log - Related Links

Times and Time Zones

All times are in EDT time to prevent confusion due to time zone crossing. See the SWA378 flight status page for this flight to view local times or setup timezone preferences in your user account.

Time Position Orientation Groundspeed Altitude Reporting Facility
EDT Latitude Longitude Course Direction KTS MPH feet Rate Location/Type
11:42AM 37.4000 -121.9667 138° Southeast 182 209 2,500  Level Northern Cal TRACON
11:43AM 37.4500 -121.9500 15° North 223 257 4,900 1,200 Climbing Northern Cal TRACON
11:44AM 37.4167 -121.8833 122° Southeast 224 258 5,000 1,200 Climbing Northern Cal TRACON
11:45AM 37.3667 -121.8333 142° Southeast 230 265 7,300 2,640 Climbing Northern Cal TRACON
11:46AM 37.3122 -121.7686 137° Southeast 251 289 10,600 3,060 Climbing Oakland Center
11:47AM 36.9976 -121.5331 138° Southeast  Level Estimated
11:47AM 37.2453 -121.6919 138° Southeast 320 368 13,800  Level Oakland Center
11:48AM 37.1742 -121.6119 138° Southeast 341 392 17,400 3,300 Climbing Oakland Center
11:49AM 37.0978 -121.5247 138° Southeast 367 422 20,600 3,000 Climbing Oakland Center
11:51AM 36.9314 -121.3456 139° Southeast 393 452 26,600 2,700 Climbing Oakland Center
11:52AM 36.8458 -121.2533 139° Southeast 404 465 29,000 2,340 Climbing Oakland Center
11:53AM 36.7447 -121.1456 139° Southeast 414 476 31,400 2,040 Climbing Oakland Center
11:54AM 36.6550 -121.0503 140° Southeast 423 487 33,300 1,620 Climbing Oakland Center
11:55AM 36.5636 -120.9494 138° Southeast 436 502 34,800 1,260 Climbing Oakland Center
11:56AM 36.4689 -120.8481 139° Southeast 447 514 36,000 1,260 Climbing Oakland Center
11:58AM 36.2728 -120.6411 140° Southeast 462 532 38,800 840 Climbing Oakland Center
11:59AM 36.1700 -120.5422 142° Southeast 466 536 38,600 -600 Descending Oakland Center
12:00PM 36.0692 -120.4364 140° Southeast 479 551 37,600 -840 Descending Oakland Center
12:01PM 35.9706 -120.3431 143° Southeast 443 510 37,000 -300 Descending Oakland Center
12:02PM 35.8711 -120.2428 141° Southeast 456 525 37,000  Level Oakland Center
12:03PM 35.7511 -120.1256 142° Southeast 455 524 37,000  Level Oakland Center
12:04PM 35.6514 -120.0275 141° Southeast 455 524 37,000  Level Oakland Center
12:05PM 35.5525 -119.9300 141° Southeast 453 521 37,000  Level Oakland Center
12:06PM 35.4528 -119.8331 142° Southeast 453 521 37,000  Level Oakland Center
12:07PM 35.3542 -119.7347 141° Southeast 454 522 37,000  Level Oakland Center
12:08PM 35.3342 -119.7167 144° Southeast 452 520 37,000  Level Los Angeles Center
12:09PM 35.2350 -119.6222 142° Southeast 451 519 37,000 -480 Level Los Angeles Center
12:10PM 35.1308 -119.5350 146° Southeast 452 520 36,100 -1,920 Descending Los Angeles Center
12:11PM 35.0286 -119.4475 145° Southeast 448 516 33,100 -3,120 Descending Los Angeles Center
12:12PM 34.9056 -119.3417 145° Southeast 451 519 29,700 -2,880 Descending Los Angeles Center
12:13PM 34.8042 -119.2564 145° Southeast 444 511 27,200 -2,340 Descending Los Angeles Center
12:14PM 34.7072 -119.1742 145° Southeast 427 491 24,900 -2,220 Descending Los Angeles Center
12:15PM 34.6158 -119.0972 145° Southeast 418 481 22,700 -2,160 Descending Los Angeles Center
12:16PM 34.5244 -119.0206 145° Southeast 398 458 20,500 -2,400 Descending Los Angeles Center
12:17PM 34.4178 -118.9333 146° Southeast 382 440 17,800 -2,400 Descending Los Angeles Center
12:18PM 34.3294 -118.8711 150° Southeast 367 422 15,600 -2,160 Descending Los Angeles Center
12:19PM 34.2311 -118.8350 163° South 367 422 13,400 -2,100 Descending Los Angeles Center
12:20PM 34.1369 -118.8003 163° South 357 411 11,300 -1,680 Descending Los Angeles Center
12:21PM 34.0561 -118.7469 151° Southeast 296 341 10,000 -660 Descending Los Angeles Center
12:22PM 34.0394 -118.6481 101° East 280 322 10,000 -900 Level Los Angeles Center
12:23PM 34.0250 -118.5553 101° East 282 325 8,200 -1,500 Descending Los Angeles Center
12:24PM 34.0114 -118.4572 99° East 276 318 6,900 -1,260 Descending Los Angeles Center
12:25PM 34.0256 -118.3758 78° East 271 312 5,600 -1,440 Descending Los Angeles Center
12:26PM 34.0367 -118.2861 81° East 270 311 4,000 -1,200 Descending Los Angeles Center
12:27PM 34.0492 -118.1997 80° East 265 305 3,200 -660 Descending Los Angeles Center
12:28PM 34.0469 -118.1308 92° East 231 266 2,700 -540 Descending Los Angeles Center
12:29PM 33.9883 -118.1456 192° South 197 227 2,200 -300 Descending Los Angeles Center
12:30PM 33.9731 -118.2044 253° West 190 219 2,200  Level Los Angeles Center
12:31PM 33.9661 -118.2647 262° West 187 215 2,200 -360 Level Los Angeles Center
12:32PM 33.9603 -118.3186 263° West 176 203 1,500 -720 Descending Los Angeles Center
12:34PM 33.9569 -118.3661 265° West 159 183 800 -660 Descending Los Angeles Center
12:35PM 33.9519 -118.4158 263° West 149 171 200 -600 Descending Los Angeles Center